PWSweather.com
Personal Weather Stations
Station Observations
CAPEBRETON
Mira Road, Sydney, NS

Mira RoadSydney, NS

Lat: 46.1207292, Lon: -60.1594642

Elevation: 175

Station Type: LaCrosse Weather Pro Center 2800 Series

http://pwscapebreton.weebly.com/

Latest ConditionsUpdated 10:20:17 PM GMT-04:56 Sunday, Sep 21, 2014
Currently Today's Max Today's Min Today's Average
Temperature 67.1°F19.5°C 77.2°F25.1°C 56.5°F13.6°C 66.4°F19.1°C
Dew Point 64.7°F18.2°C 64.7°F18.2°C 51.0°F10.6°C 57.0°F13.9°C
Winds 3.5 mph SE5.6 kmh SE 7.2 mph WNW11.6 kmh WNW - 2.8 mph 4.5 kmh
Wind Gusts 8.9 mph14.3 kmh 12.8 mph20.6 kmh - -
Humidity 92% 92% 52% 73%
Pressure 29.97 in1014.9 mb 30.12 in1020.0 mb 29.97 in1014.9 mb -
Hour Temp Dew Point Humidity Winds Wind Gusts Pressure Precip Precip Rate Daily Precip Total
10:20 PM 67.1°F19.5°C 64.7°F18.2°C 92% 3.5 mph SE5.6 kmh SE 8.9 mph14.3 kmh 29.97 in1014.9 mb 0.00 in0.0 mm 0.00 in/hr0.0 mm/hr 0.00 in0.0 mm
10:15 PM 67.0°F19.4°C 64.2°F17.9°C 91% 2.4 mph N3.9 kmh N 5.1 mph8.2 kmh 29.98 in1015.2 mb 0.00 in0.0 mm 0.00 in/hr0.0 mm/hr 0.00 in0.0 mm
10:10 PM 67.0°F19.4°C 64.2°F17.9°C 91% 2.4 mph N3.9 kmh N 5.1 mph8.2 kmh 29.98 in1015.2 mb 0.00 in0.0 mm 0.00 in/hr0.0 mm/hr 0.00 in0.0 mm
10:05 PM 66.8°F19.3°C 64.0°F17.8°C 91% 2.2 mph SW3.5 kmh SW 4.0 mph6.4 kmh 29.99 in1015.6 mb 0.00 in0.0 mm 0.00 in/hr0.0 mm/hr 0.00 in0.0 mm
10:00 PM 66.6°F19.2°C 63.8°F17.7°C 91% 1.8 mph WSW2.9 kmh WSW 4.0 mph6.4 kmh 29.99 in1015.6 mb 0.00 in0.0 mm 0.00 in/hr0.0 mm/hr 0.00 in0.0 mm
09:55 PM 66.6°F19.2°C 63.5°F17.5°C 90% 1.4 mph WNW2.3 kmh WNW 4.0 mph6.4 kmh 29.99 in1015.6 mb 0.00 in0.0 mm 0.00 in/hr0.0 mm/hr 0.00 in0.0 mm
09:50 PM 66.6°F19.2°C 63.5°F17.5°C 90% 1.8 mph W2.9 kmh W 5.6 mph9.0 kmh 29.99 in1015.6 mb 0.00 in0.0 mm 0.00 in/hr0.0 mm/hr 0.00 in0.0 mm
09:45 PM 66.6°F19.2°C 63.5°F17.5°C 90% 3.0 mph W4.8 kmh W 5.6 mph9.0 kmh 29.99 in1015.6 mb 0.00 in0.0 mm 0.00 in/hr0.0 mm/hr 0.00 in0.0 mm
09:40 PM 66.6°F19.2°C 63.5°F17.5°C 90% 2.2 mph S3.5 kmh S 5.8 mph9.3 kmh 29.99 in1015.6 mb 0.00 in0.0 mm 0.00 in/hr0.0 mm/hr 0.00 in0.0 mm
09:35 PM 66.4°F19.1°C 63.4°F17.4°C 90% 2.8 mph WSW4.5 kmh WSW 5.8 mph9.3 kmh 30.00 in1015.9 mb 0.00 in0.0 mm 0.00 in/hr0.0 mm/hr 0.00 in0.0 mm
09:30 PM 66.4°F19.1°C 63.4°F17.4°C 90% 3.2 mph SSW5.1 kmh SSW 5.8 mph9.3 kmh 30.00 in1015.9 mb 0.00 in0.0 mm 0.00 in/hr0.0 mm/hr 0.00 in0.0 mm
09:25 PM 66.4°F19.1°C 63.0°F17.2°C 89% 2.1 mph ESE3.4 kmh ESE 4.9 mph7.9 kmh 30.00 in1015.9 mb 0.00 in0.0 mm 0.00 in/hr0.0 mm/hr 0.00 in0.0 mm
09:20 PM 66.4°F19.1°C 63.0°F17.2°C 89% 2.0 mph WNW3.2 kmh WNW 4.7 mph7.6 kmh 30.00 in1015.9 mb 0.00 in0.0 mm 0.00 in/hr0.0 mm/hr 0.00 in0.0 mm
09:15 PM 66.4°F19.1°C 62.7°F17.1°C 88% 2.6 mph W4.2 kmh W 4.7 mph7.6 kmh 30.00 in1015.9 mb 0.00 in0.0 mm 0.00 in/hr0.0 mm/hr 0.00 in0.0 mm
09:10 PM 66.6°F19.2°C 62.9°F17.2°C 88% 2.4 mph S3.9 kmh S 4.0 mph6.4 kmh 30.00 in1015.9 mb 0.00 in0.0 mm 0.00 in/hr0.0 mm/hr 0.00 in0.0 mm
09:05 PM 66.6°F19.2°C 62.9°F17.2°C 88% 2.3 mph WNW3.7 kmh WNW 4.3 mph6.9 kmh 30.00 in1015.9 mb 0.00 in0.0 mm 0.00 in/hr0.0 mm/hr 0.00 in0.0 mm
09:00 PM 66.8°F19.3°C 63.1°F17.3°C 88% 2.8 mph NW4.5 kmh NW 6.9 mph11.1 kmh 30.01 in1016.3 mb 0.00 in0.0 mm 0.00 in/hr0.0 mm/hr 0.00 in0.0 mm
08:55 PM 66.8°F19.3°C 63.1°F17.3°C 88% 2.0 mph SSW3.2 kmh SSW 6.9 mph11.1 kmh 30.01 in1016.3 mb 0.00 in0.0 mm 0.00 in/hr0.0 mm/hr 0.00 in0.0 mm
08:50 PM 66.8°F19.3°C 63.1°F17.3°C 88% 4.5 mph WSW7.2 kmh WSW 6.9 mph11.1 kmh 30.00 in1015.9 mb 0.00 in0.0 mm 0.00 in/hr0.0 mm/hr 0.00 in0.0 mm
08:45 PM 66.6°F19.2°C 62.9°F17.2°C 88% 3.5 mph NNW5.6 kmh NNW 6.0 mph9.7 kmh 30.00 in1015.9 mb 0.00 in0.0 mm 0.00 in/hr0.0 mm/hr 0.00 in0.0 mm
08:40 PM 66.6°F19.2°C 62.9°F17.2°C 88% 3.0 mph E4.8 kmh E 7.4 mph11.9 kmh 30.00 in1015.9 mb 0.00 in0.0 mm 0.00 in/hr0.0 mm/hr 0.00 in0.0 mm
08:34 PM 66.6°F19.2°C 62.6°F17.0°C 87% 3.6 mph SW5.8 kmh SW 7.4 mph11.9 kmh 30.00 in1015.9 mb 0.00 in0.0 mm 0.00 in/hr0.0 mm/hr 0.00 in0.0 mm
08:29 PM 66.4°F19.1°C 62.4°F16.9°C 87% 3.3 mph N5.3 kmh N 5.6 mph9.0 kmh 30.00 in1015.9 mb 0.00 in0.0 mm 0.00 in/hr0.0 mm/hr 0.00 in0.0 mm
08:25 PM 66.4°F19.1°C 62.4°F16.9°C 87% 2.9 mph WNW4.7 kmh WNW 6.9 mph11.1 kmh 30.00 in1015.9 mb 0.00 in0.0 mm 0.00 in/hr0.0 mm/hr 0.00 in0.0 mm
08:19 PM 66.4°F19.1°C 62.1°F16.7°C 86% 3.3 mph WSW5.3 kmh WSW 6.9 mph11.1 kmh 30.00 in1015.9 mb 0.00 in0.0 mm 0.00 in/hr0.0 mm/hr 0.00 in0.0 mm
08:14 PM 66.4°F19.1°C 62.1°F16.7°C 86% 2.3 mph WNW3.7 kmh WNW 4.9 mph7.9 kmh 30.01 in1016.3 mb 0.00 in0.0 mm 0.00 in/hr0.0 mm/hr 0.00 in0.0 mm
08:09 PM 66.4°F19.1°C 62.1°F16.7°C 86% 2.0 mph NNW3.2 kmh NNW 4.5 mph7.2 kmh 30.01 in1016.3 mb 0.00 in0.0 mm 0.00 in/hr0.0 mm/hr 0.00 in0.0 mm
08:04 PM 66.4°F19.1°C 62.1°F16.7°C 86% 2.5 mph W4.0 kmh W 5.4 mph8.7 kmh 30.01 in1016.3 mb 0.00 in0.0 mm 0.00 in/hr0.0 mm/hr 0.00 in0.0 mm
07:59 PM 66.4°F19.1°C 62.1°F16.7°C 86% 3.4 mph WSW5.5 kmh WSW 5.6 mph9.0 kmh 30.02 in1016.6 mb 0.00 in0.0 mm 0.00 in/hr0.0 mm/hr 0.00 in0.0 mm
07:54 PM 66.4°F19.1°C 62.1°F16.7°C 86% 2.7 mph ESE4.3 kmh ESE 5.6 mph9.0 kmh 30.02 in1016.6 mb 0.00 in0.0 mm 0.00 in/hr0.0 mm/hr 0.00 in0.0 mm
07:49 PM 66.4°F19.1°C 62.1°F16.7°C 86% 3.4 mph SW5.5 kmh SW 7.2 mph11.6 kmh 30.01 in1016.3 mb 0.00 in0.0 mm 0.00 in/hr0.0 mm/hr 0.00 in0.0 mm
07:44 PM 66.4°F19.1°C 62.1°F16.7°C 86% 4.6 mph WNW7.4 kmh WNW 7.2 mph11.6 kmh 30.02 in1016.6 mb 0.00 in0.0 mm 0.00 in/hr0.0 mm/hr 0.00 in0.0 mm
07:39 PM 66.2°F19.0°C 61.9°F16.6°C 86% 3.2 mph W5.1 kmh W 4.9 mph7.9 kmh 30.02 in1016.6 mb 0.00 in0.0 mm 0.00 in/hr0.0 mm/hr 0.00 in0.0 mm
07:34 PM 66.4°F19.1°C 62.1°F16.7°C 86% 3.6 mph SSW5.8 kmh SSW 5.1 mph8.2 kmh 30.02 in1016.6 mb 0.00 in0.0 mm 0.00 in/hr0.0 mm/hr 0.00 in0.0 mm
07:29 PM 66.4°F19.1°C 62.1°F16.7°C 86% 3.2 mph WSW5.1 kmh WSW 5.1 mph8.2 kmh 30.02 in1016.6 mb 0.00 in0.0 mm 0.00 in/hr0.0 mm/hr 0.00 in0.0 mm
07:24 PM 66.4°F19.1°C 61.7°F16.5°C 85% 3.0 mph W4.8 kmh W 4.7 mph7.6 kmh 30.02 in1016.6 mb 0.00 in0.0 mm 0.00 in/hr0.0 mm/hr 0.00 in0.0 mm
07:19 PM 66.4°F19.1°C 61.7°F16.5°C 85% 2.8 mph WNW4.5 kmh WNW 4.5 mph7.2 kmh 30.03 in1016.9 mb 0.00 in0.0 mm 0.00 in/hr0.0 mm/hr 0.00 in0.0 mm
07:14 PM 66.4°F19.1°C 61.7°F16.5°C 85% 2.0 mph WSW3.2 kmh WSW 4.7 mph7.6 kmh 30.02 in1016.6 mb 0.00 in0.0 mm 0.00 in/hr0.0 mm/hr 0.00 in0.0 mm
07:09 PM 66.4°F19.1°C 61.7°F16.5°C 85% 1.6 mph SW2.6 kmh SW 4.7 mph7.6 kmh 30.02 in1016.6 mb 0.00 in0.0 mm 0.00 in/hr0.0 mm/hr 0.00 in0.0 mm
07:04 PM 66.4°F19.1°C 61.4°F16.3°C 84% 2.7 mph SW4.3 kmh SW 4.7 mph7.6 kmh 30.02 in1016.6 mb 0.00 in0.0 mm 0.00 in/hr0.0 mm/hr 0.00 in0.0 mm
06:59 PM 66.4°F19.1°C 61.4°F16.3°C 84% 1.3 mph SW2.1 kmh SW 4.9 mph7.9 kmh 30.02 in1016.6 mb 0.00 in0.0 mm 0.00 in/hr0.0 mm/hr 0.00 in0.0 mm
06:54 PM 66.4°F19.1°C 61.4°F16.3°C 84% 2.5 mph WNW4.0 kmh WNW 4.9 mph7.9 kmh 30.02 in1016.6 mb 0.00 in0.0 mm 0.00 in/hr0.0 mm/hr 0.00 in0.0 mm
06:49 PM 66.6°F19.2°C 61.6°F16.4°C 84% 3.0 mph N4.8 kmh N 4.7 mph7.6 kmh 30.02 in1016.6 mb 0.00 in0.0 mm 0.00 in/hr0.0 mm/hr 0.00 in0.0 mm
06:44 PM 66.6°F19.2°C 61.6°F16.4°C 84% 2.4 mph W3.9 kmh W 6.5 mph10.5 kmh 30.02 in1016.6 mb 0.00 in0.0 mm 0.00 in/hr0.0 mm/hr 0.00 in0.0 mm
06:39 PM 66.6°F19.2°C 61.6°F16.4°C 84% 3.5 mph WSW5.6 kmh WSW 6.5 mph10.5 kmh 30.02 in1016.6 mb 0.00 in0.0 mm 0.00 in/hr0.0 mm/hr 0.00 in0.0 mm
06:34 PM 66.8°F19.3°C 61.5°F16.4°C 83% 2.5 mph NW4.0 kmh NW 4.7 mph7.6 kmh 30.02 in1016.6 mb 0.00 in0.0 mm 0.00 in/hr0.0 mm/hr 0.00 in0.0 mm
06:29 PM 66.8°F19.3°C 61.5°F16.4°C 83% 2.8 mph SW4.5 kmh SW 7.4 mph11.9 kmh 30.02 in1016.6 mb 0.00 in0.0 mm 0.00 in/hr0.0 mm/hr 0.00 in0.0 mm
06:24 PM 67.0°F19.4°C 61.7°F16.5°C 83% 3.2 mph WSW5.1 kmh WSW 7.4 mph11.9 kmh 30.02 in1016.6 mb 0.00 in0.0 mm 0.00 in/hr0.0 mm/hr 0.00 in0.0 mm
06:19 PM 67.0°F19.4°C 61.7°F16.5°C 83% 3.5 mph SW5.6 kmh SW 6.3 mph10.1 kmh 30.02 in1016.6 mb 0.00 in0.0 mm 0.00 in/hr0.0 mm/hr 0.00 in0.0 mm
06:14 PM 67.0°F19.4°C 61.3°F16.3°C 82% 3.0 mph WSW4.8 kmh WSW 4.9 mph7.9 kmh 30.02 in1016.6 mb 0.00 in0.0 mm 0.00 in/hr0.0 mm/hr 0.00 in0.0 mm
06:09 PM 67.1°F19.5°C 61.5°F16.4°C 82% 2.7 mph WSW4.3 kmh WSW 4.7 mph7.6 kmh 30.02 in1016.6 mb 0.00 in0.0 mm 0.00 in/hr0.0 mm/hr 0.00 in0.0 mm
06:04 PM 67.3°F19.6°C 61.4°F16.3°C 81% 2.0 mph SW3.2 kmh SW 4.7 mph7.6 kmh 30.02 in1016.6 mb 0.00 in0.0 mm 0.00 in/hr0.0 mm/hr 0.00 in0.0 mm
05:59 PM 67.5°F19.7°C 61.2°F16.2°C 80% 1.7 mph WNW2.7 kmh WNW 5.6 mph9.0 kmh 30.02 in1016.6 mb 0.00 in0.0 mm 0.00 in/hr0.0 mm/hr 0.00 in0.0 mm
05:54 PM 67.7°F19.8°C 61.8°F16.6°C 81% 3.3 mph WSW5.3 kmh WSW 6.3 mph10.1 kmh 30.02 in1016.6 mb 0.00 in0.0 mm 0.00 in/hr0.0 mm/hr 0.00 in0.0 mm
05:49 PM 67.9°F19.9°C 61.6°F16.4°C 80% 3.5 mph SSW5.6 kmh SSW 6.3 mph10.1 kmh 30.02 in1016.6 mb 0.00 in0.0 mm 0.00 in/hr0.0 mm/hr 0.00 in0.0 mm
05:44 PM 68.0°F20.0°C 61.7°F16.5°C 80% 2.8 mph SSE4.5 kmh SSE 6.0 mph9.7 kmh 30.02 in1016.6 mb 0.00 in0.0 mm 0.00 in/hr0.0 mm/hr 0.00 in0.0 mm
05:39 PM 68.0°F20.0°C 61.7°F16.5°C 80% 2.8 mph S4.5 kmh S 5.8 mph9.3 kmh 30.02 in1016.6 mb 0.00 in0.0 mm 0.00 in/hr0.0 mm/hr 0.00 in0.0 mm
05:34 PM 68.2°F20.1°C 61.6°F16.4°C 79% 2.7 mph W4.3 kmh W 5.8 mph9.3 kmh 30.02 in1016.6 mb 0.00 in0.0 mm 0.00 in/hr0.0 mm/hr 0.00 in0.0 mm
05:29 PM 68.4°F20.2°C 61.3°F16.3°C 78% 1.8 mph WSW2.9 kmh WSW 7.4 mph11.9 kmh 30.02 in1016.6 mb 0.00 in0.0 mm 0.00 in/hr0.0 mm/hr 0.00 in0.0 mm
05:24 PM 68.8°F20.4°C 61.7°F16.5°C 78% 3.7 mph WNW6.0 kmh WNW 7.4 mph11.9 kmh 30.02 in1016.6 mb 0.00 in0.0 mm 0.00 in/hr0.0 mm/hr 0.00 in0.0 mm
05:19 PM 68.9°F20.5°C 61.4°F16.3°C 77% 3.8 mph NW6.1 kmh NW 6.5 mph10.5 kmh 30.02 in1016.6 mb 0.00 in0.0 mm 0.00 in/hr0.0 mm/hr 0.00 in0.0 mm
05:14 PM 69.1°F20.6°C 60.9°F16.1°C 75% 3.5 mph W5.6 kmh W 7.4 mph11.9 kmh 30.02 in1016.6 mb 0.00 in0.0 mm 0.00 in/hr0.0 mm/hr 0.00 in0.0 mm
05:09 PM 69.5°F20.8°C 61.1°F16.2°C 75% 2.9 mph S4.7 kmh S 7.4 mph11.9 kmh 30.02 in1016.6 mb 0.00 in0.0 mm 0.00 in/hr0.0 mm/hr 0.00 in0.0 mm
05:04 PM 69.8°F21.0°C 61.1°F16.2°C 74% 3.6 mph WSW5.8 kmh WSW 8.3 mph13.4 kmh 30.02 in1016.6 mb 0.00 in0.0 mm 0.00 in/hr0.0 mm/hr 0.00 in0.0 mm
04:59 PM 69.8°F21.0°C 60.8°F16.0°C 73% 2.6 mph SSE4.2 kmh SSE 8.3 mph13.4 kmh 30.01 in1016.3 mb 0.00 in0.0 mm 0.00 in/hr0.0 mm/hr 0.00 in0.0 mm
04:54 PM 70.2°F21.2°C 60.7°F15.9°C 72% 3.2 mph WSW5.1 kmh WSW 5.6 mph9.0 kmh 30.02 in1016.6 mb 0.00 in0.0 mm 0.00 in/hr0.0 mm/hr 0.00 in0.0 mm
04:49 PM 70.6°F21.4°C 60.7°F15.9°C 71% 2.4 mph WSW3.9 kmh WSW 5.8 mph9.3 kmh 30.01 in1016.3 mb 0.00 in0.0 mm 0.00 in/hr0.0 mm/hr 0.00 in0.0 mm
04:44 PM 70.9°F21.6°C 60.7°F15.9°C 70% 3.6 mph S5.8 kmh S 5.8 mph9.3 kmh 30.01 in1016.3 mb 0.00 in0.0 mm 0.00 in/hr0.0 mm/hr 0.00 in0.0 mm
04:39 PM 71.3°F21.8°C 60.6°F15.9°C 69% 2.6 mph NW4.2 kmh NW 4.0 mph6.4 kmh 30.02 in1016.6 mb 0.00 in0.0 mm 0.00 in/hr0.0 mm/hr 0.00 in0.0 mm
04:34 PM 71.5°F21.9°C 60.3°F15.7°C 68% 2.2 mph SW3.5 kmh SW 6.9 mph11.1 kmh 30.02 in1016.6 mb 0.00 in0.0 mm 0.00 in/hr0.0 mm/hr 0.00 in0.0 mm
04:29 PM 71.6°F22.0°C 60.1°F15.6°C 67% 3.0 mph NE4.8 kmh NE 7.4 mph11.9 kmh 30.02 in1016.6 mb 0.00 in0.0 mm 0.00 in/hr0.0 mm/hr 0.00 in0.0 mm
04:24 PM 71.8°F22.1°C 60.3°F15.7°C 67% 3.7 mph WSW6.0 kmh WSW 7.4 mph11.9 kmh 30.02 in1016.6 mb 0.00 in0.0 mm 0.00 in/hr0.0 mm/hr 0.00 in0.0 mm
04:19 PM 72.0°F22.2°C 60.0°F15.6°C 66% 3.8 mph WSW6.1 kmh WSW 6.3 mph10.1 kmh 30.02 in1016.6 mb 0.00 in0.0 mm 0.00 in/hr0.0 mm/hr 0.00 in0.0 mm
04:14 PM 72.2°F22.3°C 59.8°F15.4°C 65% 3.3 mph SW5.3 kmh SW 6.3 mph10.1 kmh 30.01 in1016.3 mb 0.00 in0.0 mm 0.00 in/hr0.0 mm/hr 0.00 in0.0 mm
04:09 PM 72.4°F22.4°C 59.5°F15.3°C 64% 3.0 mph E4.8 kmh E 7.8 mph12.6 kmh 30.01 in1016.3 mb 0.00 in0.0 mm 0.00 in/hr0.0 mm/hr 0.00 in0.0 mm
04:04 PM 72.4°F22.4°C 58.6°F14.8°C 62% 3.4 mph WSW5.5 kmh WSW 10.1 mph16.3 kmh 30.02 in1016.6 mb 0.00 in0.0 mm 0.00 in/hr0.0 mm/hr 0.00 in0.0 mm
03:59 PM 72.7°F22.6°C 58.5°F14.7°C 61% 4.0 mph SW6.4 kmh SW 10.1 mph16.3 kmh 30.02 in1016.6 mb 0.00 in0.0 mm 0.00 in/hr0.0 mm/hr 0.00 in0.0 mm
03:54 PM 73.1°F22.8°C 58.3°F14.6°C 60% 5.1 mph SW8.2 kmh SW 7.8 mph12.6 kmh 30.01 in1016.3 mb 0.00 in0.0 mm 0.00 in/hr0.0 mm/hr 0.00 in0.0 mm
03:49 PM 73.1°F22.8°C 58.3°F14.6°C 60% 3.2 mph W5.1 kmh W 7.8 mph12.6 kmh 30.02 in1016.6 mb 0.00 in0.0 mm 0.00 in/hr0.0 mm/hr 0.00 in0.0 mm
03:44 PM 73.1°F22.8°C 57.9°F14.4°C 59% 4.1 mph W6.6 kmh W 8.5 mph13.7 kmh 30.02 in1016.6 mb 0.00 in0.0 mm 0.00 in/hr0.0 mm/hr 0.00 in0.0 mm
03:39 PM 73.3°F22.9°C 58.1°F14.5°C 59% 4.1 mph N6.6 kmh N 8.5 mph13.7 kmh 30.02 in1016.6 mb 0.00 in0.0 mm 0.00 in/hr0.0 mm/hr 0.00 in0.0 mm
03:34 PM 73.8°F23.2°C 58.5°F14.7°C 59% 2.8 mph SW4.5 kmh SW 7.2 mph11.6 kmh 30.02 in1016.6 mb 0.00 in0.0 mm 0.00 in/hr0.0 mm/hr 0.00 in0.0 mm
03:29 PM 74.0°F23.3°C 58.7°F14.8°C 59% 5.1 mph WSW8.2 kmh WSW 8.1 mph13.0 kmh 30.02 in1016.6 mb 0.00 in0.0 mm 0.00 in/hr0.0 mm/hr 0.00 in0.0 mm
03:24 PM 74.5°F23.6°C 58.8°F14.9°C 58% 3.8 mph WNW6.1 kmh WNW 8.1 mph13.0 kmh 30.02 in1016.6 mb 0.00 in0.0 mm 0.00 in/hr0.0 mm/hr 0.00 in0.0 mm
03:19 PM 74.9°F23.8°C 58.6°F14.8°C 57% 2.8 mph SW4.5 kmh SW 8.1 mph13.0 kmh 30.02 in1016.6 mb 0.00 in0.0 mm 0.00 in/hr0.0 mm/hr 0.00 in0.0 mm
03:14 PM 75.4°F24.1°C 58.6°F14.8°C 56% 3.6 mph WNW5.8 kmh WNW 7.2 mph11.6 kmh 30.02 in1016.6 mb 0.00 in0.0 mm 0.00 in/hr0.0 mm/hr 0.00 in0.0 mm
03:09 PM 75.8°F24.3°C 58.0°F14.4°C 54% 5.1 mph WSW8.2 kmh WSW 7.2 mph11.6 kmh 30.02 in1016.6 mb 0.00 in0.0 mm 0.00 in/hr0.0 mm/hr 0.00 in0.0 mm
03:04 PM 76.0°F24.4°C 58.2°F14.6°C 54% 3.7 mph W6.0 kmh W 12.8 mph20.6 kmh 30.02 in1016.6 mb 0.00 in0.0 mm 0.00 in/hr0.0 mm/hr 0.00 in0.0 mm
02:59 PM 76.3°F24.6°C 58.4°F14.7°C 54% 3.5 mph W5.6 kmh W 12.8 mph20.6 kmh 30.02 in1016.6 mb 0.00 in0.0 mm 0.00 in/hr0.0 mm/hr 0.00 in0.0 mm
02:54 PM 76.5°F24.7°C 58.6°F14.8°C 54% 2.7 mph WSW4.3 kmh WSW 5.4 mph8.7 kmh 30.02 in1016.6 mb 0.00 in0.0 mm 0.00 in/hr0.0 mm/hr 0.00 in0.0 mm
02:49 PM 76.5°F24.7°C 59.1°F15.1°C 55% 3.5 mph NW5.6 kmh NW 4.9 mph7.9 kmh 30.02 in1016.6 mb 0.00 in0.0 mm 0.00 in/hr0.0 mm/hr 0.00 in0.0 mm
02:44 PM 76.1°F24.5°C 58.8°F14.9°C 55% 4.1 mph WSW6.6 kmh WSW 7.6 mph12.2 kmh 30.02 in1016.6 mb 0.00 in0.0 mm 0.00 in/hr0.0 mm/hr 0.00 in0.0 mm
02:39 PM 75.8°F24.3°C 58.4°F14.7°C 55% 4.2 mph WNW6.8 kmh WNW 7.6 mph12.2 kmh 30.02 in1016.6 mb 0.00 in0.0 mm 0.00 in/hr0.0 mm/hr 0.00 in0.0 mm
02:34 PM 76.0°F24.4°C 58.6°F14.8°C 55% 3.3 mph SSW5.3 kmh SSW 7.6 mph12.2 kmh 30.02 in1016.6 mb 0.00 in0.0 mm 0.00 in/hr0.0 mm/hr 0.00 in0.0 mm
02:29 PM 76.0°F24.4°C 58.2°F14.6°C 54% 4.4 mph SW7.1 kmh SW 7.6 mph12.2 kmh 30.02 in1016.6 mb 0.00 in0.0 mm 0.00 in/hr0.0 mm/hr 0.00 in0.0 mm
02:24 PM 76.0°F24.4°C 59.1°F15.1°C 56% 2.9 mph NNE4.7 kmh NNE 8.7 mph14.0 kmh 30.02 in1016.6 mb 0.00 in0.0 mm 0.00 in/hr0.0 mm/hr 0.00 in0.0 mm
02:19 PM 75.6°F24.2°C 58.3°F14.6°C 55% 5.3 mph WSW8.5 kmh WSW 8.7 mph14.0 kmh 30.03 in1016.9 mb 0.00 in0.0 mm 0.00 in/hr0.0 mm/hr 0.00 in0.0 mm
02:14 PM 76.0°F24.4°C 58.2°F14.6°C 54% 5.3 mph WSW8.5 kmh WSW 8.5 mph13.7 kmh 30.03 in1016.9 mb 0.00 in0.0 mm 0.00 in/hr0.0 mm/hr 0.00 in0.0 mm
02:09 PM 76.0°F24.4°C 58.6°F14.8°C 55% 5.4 mph WNW8.7 kmh WNW 8.5 mph13.7 kmh 30.03 in1016.9 mb 0.00 in0.0 mm 0.00 in/hr0.0 mm/hr 0.00 in0.0 mm
02:04 PM 76.5°F24.7°C 58.6°F14.8°C 54% 5.0 mph NW8.0 kmh NW 7.6 mph12.2 kmh 30.03 in1016.9 mb 0.00 in0.0 mm 0.00 in/hr0.0 mm/hr 0.00 in0.0 mm
01:59 PM 76.3°F24.6°C 59.0°F15.0°C 55% 3.6 mph WSW5.8 kmh WSW 6.9 mph11.1 kmh 30.03 in1016.9 mb 0.00 in0.0 mm 0.00 in/hr0.0 mm/hr 0.00 in0.0 mm
01:54 PM 76.3°F24.6°C 59.0°F15.0°C 55% 4.5 mph WNW7.2 kmh WNW 6.9 mph11.1 kmh 30.03 in1016.9 mb 0.00 in0.0 mm 0.00 in/hr0.0 mm/hr 0.00 in0.0 mm
01:49 PM 76.3°F24.6°C 58.4°F14.7°C 54% 5.7 mph W9.2 kmh W 6.9 mph11.1 kmh 30.03 in1016.9 mb 0.00 in0.0 mm 0.00 in/hr0.0 mm/hr 0.00 in0.0 mm
01:44 PM 76.5°F24.7°C 58.1°F14.5°C 53% 4.7 mph WNW7.6 kmh WNW 9.4 mph15.1 kmh 30.04 in1017.3 mb 0.00 in0.0 mm 0.00 in/hr0.0 mm/hr 0.00 in0.0 mm
01:39 PM 77.0°F25.0°C 58.1°F14.5°C 52% 7.2 mph WNW11.6 kmh WNW 9.4 mph15.1 kmh 30.04 in1017.3 mb 0.00 in0.0 mm 0.00 in/hr0.0 mm/hr 0.00 in0.0 mm
01:34 PM 77.2°F25.1°C 58.2°F14.6°C 52% 3.0 mph N4.8 kmh N 9.2 mph14.8 kmh 30.04 in1017.3 mb 0.00 in0.0 mm 0.00 in/hr0.0 mm/hr 0.00 in0.0 mm
01:29 PM 77.0°F25.0°C 58.6°F14.8°C 53% 2.7 mph N4.3 kmh N 6.7 mph10.8 kmh 30.04 in1017.3 mb 0.00 in0.0 mm 0.00 in/hr0.0 mm/hr 0.00 in0.0 mm
01:24 PM 76.9°F24.9°C 58.4°F14.7°C 53% 3.9 mph WNW6.3 kmh WNW 5.8 mph9.3 kmh 30.04 in1017.3 mb 0.00 in0.0 mm 0.00 in/hr0.0 mm/hr 0.00 in0.0 mm
01:19 PM 76.9°F24.9°C 57.9°F14.4°C 52% 3.5 mph WSW5.6 kmh WSW 6.3 mph10.1 kmh 30.04 in1017.3 mb 0.00 in0.0 mm 0.00 in/hr0.0 mm/hr 0.00 in0.0 mm
01:14 PM 76.7°F24.8°C 58.2°F14.6°C 53% 3.4 mph W5.5 kmh W 8.1 mph13.0 kmh 30.04 in1017.3 mb 0.00 in0.0 mm 0.00 in/hr0.0 mm/hr 0.00 in0.0 mm
01:09 PM 76.3°F24.6°C 58.0°F14.4°C 53% 2.6 mph SW4.2 kmh SW 8.1 mph13.0 kmh 30.04 in1017.3 mb 0.00 in0.0 mm 0.00 in/hr0.0 mm/hr 0.00 in0.0 mm
01:03 PM 76.3°F24.6°C 57.4°F14.1°C 52% 5.1 mph WNW8.2 kmh WNW 7.6 mph12.2 kmh 30.04 in1017.3 mb 0.00 in0.0 mm 0.00 in/hr0.0 mm/hr 0.00 in0.0 mm
12:59 PM 76.5°F24.7°C 58.1°F14.5°C 53% 5.7 mph WSW9.2 kmh WSW 7.6 mph12.2 kmh 30.04 in1017.3 mb 0.00 in0.0 mm 0.00 in/hr0.0 mm/hr 0.00 in0.0 mm
12:53 PM 76.7°F24.8°C 58.2°F14.6°C 53% 5.3 mph NW8.5 kmh NW 8.1 mph13.0 kmh 30.04 in1017.3 mb 0.00 in0.0 mm 0.00 in/hr0.0 mm/hr 0.00 in0.0 mm
12:48 PM 76.9°F24.9°C 59.0°F15.0°C 54% 4.4 mph WSW7.1 kmh WSW 8.1 mph13.0 kmh 30.04 in1017.3 mb 0.00 in0.0 mm 0.00 in/hr0.0 mm/hr 0.00 in0.0 mm
12:43 PM 77.0°F25.0°C 58.6°F14.8°C 53% 4.1 mph NNW6.6 kmh NNW 6.7 mph10.8 kmh 30.04 in1017.3 mb 0.00 in0.0 mm 0.00 in/hr0.0 mm/hr 0.00 in0.0 mm
12:38 PM 77.0°F25.0°C 58.6°F14.8°C 53% 3.3 mph W5.3 kmh W 5.4 mph8.7 kmh 30.05 in1017.6 mb 0.00 in0.0 mm 0.00 in/hr0.0 mm/hr 0.00 in0.0 mm
12:33 PM 76.5°F24.7°C 58.6°F14.8°C 54% 2.9 mph WNW4.7 kmh WNW 5.4 mph8.7 kmh 30.05 in1017.6 mb 0.00 in0.0 mm 0.00 in/hr0.0 mm/hr 0.00 in0.0 mm
12:28 PM 76.5°F24.7°C 58.1°F14.5°C 53% 2.9 mph NW4.7 kmh NW 6.7 mph10.8 kmh 30.06 in1017.9 mb 0.00 in0.0 mm 0.00 in/hr0.0 mm/hr 0.00 in0.0 mm
12:23 PM 76.3°F24.6°C 58.0°F14.4°C 53% 2.3 mph ESE3.7 kmh ESE 9.6 mph15.4 kmh 30.06 in1017.9 mb 0.00 in0.0 mm 0.00 in/hr0.0 mm/hr 0.00 in0.0 mm
12:18 PM 76.3°F24.6°C 57.4°F14.1°C 52% 3.7 mph WNW6.0 kmh WNW 9.6 mph15.4 kmh 30.06 in1017.9 mb 0.00 in0.0 mm 0.00 in/hr0.0 mm/hr 0.00 in0.0 mm
12:13 PM 76.1°F24.5°C 57.8°F14.3°C 53% 2.8 mph NE4.5 kmh NE 7.2 mph11.6 kmh 30.06 in1017.9 mb 0.00 in0.0 mm 0.00 in/hr0.0 mm/hr 0.00 in0.0 mm
12:08 PM 76.0°F24.4°C 57.1°F13.9°C 52% 3.4 mph NW5.5 kmh NW 6.9 mph11.1 kmh 30.06 in1017.9 mb 0.00 in0.0 mm 0.00 in/hr0.0 mm/hr 0.00 in0.0 mm
12:03 PM 75.8°F24.3°C 57.4°F14.1°C 53% 2.3 mph WNW3.7 kmh WNW 5.4 mph8.7 kmh 30.06 in1017.9 mb 0.00 in0.0 mm 0.00 in/hr0.0 mm/hr 0.00 in0.0 mm
11:58 AM 75.2°F24.0°C 57.4°F14.1°C 54% 3.2 mph NW5.1 kmh NW 7.8 mph12.6 kmh 30.06 in1017.9 mb 0.00 in0.0 mm 0.00 in/hr0.0 mm/hr 0.00 in0.0 mm
11:53 AM 75.1°F23.9°C 57.2°F14.0°C 54% 3.8 mph NW6.1 kmh NW 8.5 mph13.7 kmh 30.06 in1017.9 mb 0.00 in0.0 mm 0.00 in/hr0.0 mm/hr 0.00 in0.0 mm
11:48 AM 74.9°F23.8°C 57.1°F13.9°C 54% 5.0 mph NW8.0 kmh NW 8.5 mph13.7 kmh 30.06 in1017.9 mb 0.00 in0.0 mm 0.00 in/hr0.0 mm/hr 0.00 in0.0 mm
11:43 AM 74.9°F23.8°C 57.1°F13.9°C 54% 3.2 mph N5.1 kmh N 6.9 mph11.1 kmh 30.07 in1018.3 mb 0.00 in0.0 mm 0.00 in/hr0.0 mm/hr 0.00 in0.0 mm
11:38 AM 74.5°F23.6°C 56.7°F13.7°C 54% 3.1 mph WSW5.0 kmh WSW 7.8 mph12.6 kmh 30.07 in1018.3 mb 0.00 in0.0 mm 0.00 in/hr0.0 mm/hr 0.00 in0.0 mm
11:33 AM 74.5°F23.6°C 56.7°F13.7°C 54% 4.4 mph W7.1 kmh W 7.8 mph12.6 kmh 30.07 in1018.3 mb 0.00 in0.0 mm 0.00 in/hr0.0 mm/hr 0.00 in0.0 mm
11:28 AM 74.5°F23.6°C 56.7°F13.7°C 54% 4.0 mph NW6.4 kmh NW 8.7 mph14.0 kmh 30.07 in1018.3 mb 0.00 in0.0 mm 0.00 in/hr0.0 mm/hr 0.00 in0.0 mm
11:23 AM 74.3°F23.5°C 57.6°F14.2°C 56% 3.7 mph WSW6.0 kmh WSW 8.7 mph14.0 kmh 30.07 in1018.3 mb 0.00 in0.0 mm 0.00 in/hr0.0 mm/hr 0.00 in0.0 mm
11:18 AM 74.2°F23.4°C 56.9°F13.8°C 55% 5.1 mph WNW8.2 kmh WNW 7.2 mph11.6 kmh 30.07 in1018.3 mb 0.00 in0.0 mm 0.00 in/hr0.0 mm/hr 0.00 in0.0 mm
11:13 AM 74.2°F23.4°C 57.9°F14.4°C 57% 2.6 mph SW4.2 kmh SW 6.7 mph10.8 kmh 30.07 in1018.3 mb 0.00 in0.0 mm 0.00 in/hr0.0 mm/hr 0.00 in0.0 mm
11:08 AM 73.8°F23.2°C 57.1°F13.9°C 56% 3.1 mph SW5.0 kmh SW 6.7 mph10.8 kmh 30.07 in1018.3 mb 0.00 in0.0 mm 0.00 in/hr0.0 mm/hr 0.00 in0.0 mm
11:03 AM 73.8°F23.2°C 57.1°F13.9°C 56% 3.0 mph NNE4.8 kmh NNE 6.7 mph10.8 kmh 30.07 in1018.3 mb 0.00 in0.0 mm 0.00 in/hr0.0 mm/hr 0.00 in0.0 mm
10:58 AM 74.2°F23.4°C 57.9°F14.4°C 57% 2.6 mph WSW4.2 kmh WSW 5.4 mph8.7 kmh 30.07 in1018.3 mb 0.00 in0.0 mm 0.00 in/hr0.0 mm/hr 0.00 in0.0 mm
10:53 AM 73.8°F23.2°C 58.1°F14.5°C 58% 1.6 mph NE2.6 kmh NE 6.3 mph10.1 kmh 30.08 in1018.6 mb 0.00 in0.0 mm 0.00 in/hr0.0 mm/hr 0.00 in0.0 mm
10:48 AM 73.4°F23.0°C 57.2°F14.0°C 57% 3.7 mph NW6.0 kmh NW 6.5 mph10.5 kmh 30.08 in1018.6 mb 0.00 in0.0 mm 0.00 in/hr0.0 mm/hr 0.00 in0.0 mm
10:43 AM 73.1°F22.8°C 57.3°F14.1°C 58% 3.4 mph W5.5 kmh W 6.5 mph10.5 kmh 30.08 in1018.6 mb 0.00 in0.0 mm 0.00 in/hr0.0 mm/hr 0.00 in0.0 mm
10:38 AM 72.7°F22.6°C 58.1°F14.5°C 60% 1.7 mph SSW2.7 kmh SSW 8.3 mph13.4 kmh 30.08 in1018.6 mb 0.00 in0.0 mm 0.00 in/hr0.0 mm/hr 0.00 in0.0 mm
10:33 AM 72.4°F22.4°C 57.3°F14.1°C 59% 3.7 mph SW6.0 kmh SW 8.3 mph13.4 kmh 30.08 in1018.6 mb 0.00 in0.0 mm 0.00 in/hr0.0 mm/hr 0.00 in0.0 mm
10:28 AM 72.4°F22.4°C 56.7°F13.7°C 58% 5.2 mph WNW8.4 kmh WNW 8.1 mph13.0 kmh 30.08 in1018.6 mb 0.00 in0.0 mm 0.00 in/hr0.0 mm/hr 0.00 in0.0 mm
10:23 AM 72.4°F22.4°C 57.7°F14.3°C 60% 3.4 mph NW5.5 kmh NW 5.6 mph9.0 kmh 30.08 in1018.6 mb 0.00 in0.0 mm 0.00 in/hr0.0 mm/hr 0.00 in0.0 mm
10:18 AM 72.0°F22.2°C 57.4°F14.1°C 60% 3.4 mph WSW5.5 kmh WSW 6.3 mph10.1 kmh 30.08 in1018.6 mb 0.00 in0.0 mm 0.00 in/hr0.0 mm/hr 0.00 in0.0 mm
10:13 AM 71.8°F22.1°C 57.3°F14.1°C 60% 3.3 mph NE5.3 kmh NE 7.4 mph11.9 kmh 30.08 in1018.6 mb 0.00 in0.0 mm 0.00 in/hr0.0 mm/hr 0.00 in0.0 mm
10:08 AM 72.0°F22.2°C 56.9°F13.8°C 59% 3.6 mph W5.8 kmh W 7.4 mph11.9 kmh 30.08 in1018.6 mb 0.00 in0.0 mm 0.00 in/hr0.0 mm/hr 0.00 in0.0 mm
10:03 AM 71.6°F22.0°C 56.5°F13.6°C 59% 3.9 mph SW6.3 kmh SW 6.3 mph10.1 kmh 30.08 in1018.6 mb 0.00 in0.0 mm 0.00 in/hr0.0 mm/hr 0.00 in0.0 mm
09:58 AM 71.3°F21.8°C 56.3°F13.5°C 59% 3.1 mph W5.0 kmh W 6.3 mph10.1 kmh 30.08 in1018.6 mb 0.00 in0.0 mm 0.00 in/hr0.0 mm/hr 0.00 in0.0 mm
09:53 AM 71.3°F21.8°C 56.7°F13.7°C 60% 3.0 mph W4.8 kmh W 5.6 mph9.0 kmh 30.09 in1019.0 mb 0.00 in0.0 mm 0.00 in/hr0.0 mm/hr 0.00 in0.0 mm
09:48 AM 70.9°F21.6°C 56.4°F13.6°C 60% 3.5 mph WSW5.6 kmh WSW 5.6 mph9.0 kmh 30.09 in1019.0 mb 0.00 in0.0 mm 0.00 in/hr0.0 mm/hr 0.00 in0.0 mm
09:43 AM 70.6°F21.4°C 56.5°F13.6°C 61% 2.3 mph SW3.7 kmh SW 5.8 mph9.3 kmh 30.09 in1019.0 mb 0.00 in0.0 mm 0.00 in/hr0.0 mm/hr 0.00 in0.0 mm
09:38 AM 70.6°F21.4°C 56.1°F13.4°C 60% 4.2 mph WSW6.8 kmh WSW 5.8 mph9.3 kmh 30.09 in1019.0 mb 0.00 in0.0 mm 0.00 in/hr0.0 mm/hr 0.00 in0.0 mm
09:33 AM 70.7°F21.5°C 57.1°F13.9°C 62% 2.6 mph WSW4.2 kmh WSW 5.6 mph9.0 kmh 30.09 in1019.0 mb 0.00 in0.0 mm 0.00 in/hr0.0 mm/hr 0.00 in0.0 mm
09:28 AM 70.2°F21.2°C 56.6°F13.7°C 62% 3.0 mph W4.8 kmh W 5.6 mph9.0 kmh 30.09 in1019.0 mb 0.00 in0.0 mm 0.00 in/hr0.0 mm/hr 0.00 in0.0 mm
09:23 AM 69.8°F21.0°C 56.7°F13.7°C 63% 1.5 mph NW2.4 kmh NW 5.6 mph9.0 kmh 30.09 in1019.0 mb 0.00 in0.0 mm 0.00 in/hr0.0 mm/hr 0.00 in0.0 mm
09:18 AM 69.3°F20.7°C 57.0°F13.9°C 65% 1.8 mph WNW2.9 kmh WNW 5.6 mph9.0 kmh 30.09 in1019.0 mb 0.00 in0.0 mm 0.00 in/hr0.0 mm/hr 0.00 in0.0 mm
09:13 AM 68.8°F20.4°C 56.1°F13.4°C 64% 2.4 mph SSW3.9 kmh SSW 5.6 mph9.0 kmh 30.09 in1019.0 mb 0.00 in0.0 mm 0.00 in/hr0.0 mm/hr 0.00 in0.0 mm
09:08 AM 68.8°F20.4°C 56.1°F13.4°C 64% 3.4 mph WSW5.5 kmh WSW 4.9 mph7.9 kmh 30.09 in1019.0 mb 0.00 in0.0 mm 0.00 in/hr0.0 mm/hr 0.00 in0.0 mm
09:03 AM 68.6°F20.3°C 56.7°F13.7°C 66% 2.0 mph E3.2 kmh E 4.9 mph7.9 kmh 30.09 in1019.0 mb 0.00 in0.0 mm 0.00 in/hr0.0 mm/hr 0.00 in0.0 mm
08:58 AM 68.2°F20.1°C 56.4°F13.6°C 66% 2.8 mph WSW4.5 kmh WSW 4.9 mph7.9 kmh 30.09 in1019.0 mb 0.00 in0.0 mm 0.00 in/hr0.0 mm/hr 0.00 in0.0 mm
08:53 AM 68.0°F20.0°C 56.3°F13.5°C 66% 3.2 mph W5.1 kmh W 4.9 mph7.9 kmh 30.10 in1019.3 mb 0.00 in0.0 mm 0.00 in/hr0.0 mm/hr 0.00 in0.0 mm
08:48 AM 67.7°F19.8°C 56.4°F13.6°C 67% 2.7 mph WSW4.3 kmh WSW 4.7 mph7.6 kmh 30.10 in1019.3 mb 0.00 in0.0 mm 0.00 in/hr0.0 mm/hr 0.00 in0.0 mm
08:43 AM 67.3°F19.6°C 56.0°F13.3°C 67% 1.6 mph W2.6 kmh W 4.7 mph7.6 kmh 30.10 in1019.3 mb 0.00 in0.0 mm 0.00 in/hr0.0 mm/hr 0.00 in0.0 mm
08:38 AM 66.8°F19.3°C 55.9°F13.3°C 68% 2.1 mph N3.4 kmh N 4.3 mph6.9 kmh 30.10 in1019.3 mb 0.00 in0.0 mm 0.00 in/hr0.0 mm/hr 0.00 in0.0 mm
08:33 AM 66.2°F19.0°C 55.4°F13.0°C 68% 2.6 mph W4.2 kmh W 4.3 mph6.9 kmh 30.10 in1019.3 mb 0.00 in0.0 mm 0.00 in/hr0.0 mm/hr 0.00 in0.0 mm
08:28 AM 65.7°F18.7°C 56.1°F13.4°C 71% 1.5 mph NNW2.4 kmh NNW 5.4 mph8.7 kmh 30.09 in1019.0 mb 0.00 in0.0 mm 0.00 in/hr0.0 mm/hr 0.00 in0.0 mm
08:23 AM 65.0°F18.3°C 55.0°F12.8°C 70% 2.1 mph SW3.4 kmh SW 5.8 mph9.3 kmh 30.10 in1019.3 mb 0.00 in0.0 mm 0.00 in/hr0.0 mm/hr 0.00 in0.0 mm
08:18 AM 64.8°F18.2°C 55.3°F12.9°C 71% 3.9 mph WNW6.3 kmh WNW 6.0 mph9.7 kmh 30.10 in1019.3 mb 0.00 in0.0 mm 0.00 in/hr0.0 mm/hr 0.00 in0.0 mm
08:13 AM 64.6°F18.1°C 55.8°F13.2°C 73% 1.7 mph W2.7 kmh W 6.0 mph9.7 kmh 30.09 in1019.0 mb 0.00 in0.0 mm 0.00 in/hr0.0 mm/hr 0.00 in0.0 mm
08:08 AM 64.4°F18.0°C 55.6°F13.1°C 73% 2.0 mph WSW3.2 kmh WSW 4.0 mph6.4 kmh 30.10 in1019.3 mb 0.00 in0.0 mm 0.00 in/hr0.0 mm/hr 0.00 in0.0 mm
08:03 AM 64.1°F17.8°C 55.6°F13.1°C 74% 1.5 mph SE2.4 kmh SE 3.4 mph5.5 kmh 30.10 in1019.3 mb 0.00 in0.0 mm 0.00 in/hr0.0 mm/hr 0.00 in0.0 mm
07:58 AM 63.5°F17.5°C 55.4°F13.0°C 75% 1.1 mph WNW1.8 kmh WNW 3.4 mph5.5 kmh 30.10 in1019.3 mb 0.00 in0.0 mm 0.00 in/hr0.0 mm/hr 0.00 in0.0 mm
07:53 AM 63.0°F17.2°C 55.3°F12.9°C 76% 2.0 mph SW3.2 kmh SW 3.4 mph5.5 kmh 30.09 in1019.0 mb 0.00 in0.0 mm 0.00 in/hr0.0 mm/hr 0.00 in0.0 mm
07:48 AM 62.6°F17.0°C 54.9°F12.7°C 76% 2.1 mph W3.4 kmh W 4.7 mph7.6 kmh 30.10 in1019.3 mb 0.00 in0.0 mm 0.00 in/hr0.0 mm/hr 0.00 in0.0 mm
07:43 AM 62.1°F16.7°C 54.5°F12.5°C 76% 2.5 mph WNW4.0 kmh WNW 4.7 mph7.6 kmh 30.09 in1019.0 mb 0.00 in0.0 mm 0.00 in/hr0.0 mm/hr 0.00 in0.0 mm
07:38 AM 61.7°F16.5°C 54.8°F12.7°C 78% 2.0 mph WSW3.2 kmh WSW 4.5 mph7.2 kmh 30.10 in1019.3 mb 0.00 in0.0 mm 0.00 in/hr0.0 mm/hr 0.00 in0.0 mm
07:33 AM 61.2°F16.2°C 54.7°F12.6°C 79% 1.8 mph WSW2.9 kmh WSW 4.5 mph7.2 kmh 30.10 in1019.3 mb 0.00 in0.0 mm 0.00 in/hr0.0 mm/hr 0.00 in0.0 mm
07:28 AM 60.8°F16.0°C 54.4°F12.4°C 79% 1.4 mph S2.3 kmh S 3.4 mph5.5 kmh 30.09 in1019.0 mb 0.00 in0.0 mm 0.00 in/hr0.0 mm/hr 0.00 in0.0 mm
07:23 AM 60.3°F15.7°C 54.2°F12.3°C 80% 1.3 mph SSE2.1 kmh SSE 4.3 mph6.9 kmh 30.10 in1019.3 mb 0.00 in0.0 mm 0.00 in/hr0.0 mm/hr 0.00 in0.0 mm
07:18 AM 59.8°F15.4°C 54.0°F12.2°C 81% 2.4 mph SW3.9 kmh SW 4.3 mph6.9 kmh 30.09 in1019.0 mb 0.00 in0.0 mm 0.00 in/hr0.0 mm/hr 0.00 in0.0 mm
07:13 AM 59.0°F15.0°C 53.6°F12.0°C 82% 1.3 mph SE2.1 kmh SE 2.5 mph4.0 kmh 30.10 in1019.3 mb 0.00 in0.0 mm 0.00 in/hr0.0 mm/hr 0.00 in0.0 mm
07:08 AM 58.5°F14.7°C 53.0°F11.7°C 82% 1.0 mph W1.6 kmh W 2.0 mph3.2 kmh 30.10 in1019.3 mb 0.00 in0.0 mm 0.00 in/hr0.0 mm/hr 0.00 in0.0 mm
07:03 AM 58.3°F14.6°C 53.2°F11.8°C 83% 0.8 mph SE1.3 kmh SE 1.6 mph2.6 kmh 30.10 in1019.3 mb 0.00 in0.0 mm 0.00 in/hr0.0 mm/hr 0.00 in0.0 mm
06:58 AM 58.1°F14.5°C 53.0°F11.7°C 83% 0.7 mph S1.1 kmh S 2.5 mph4.0 kmh 30.10 in1019.3 mb 0.00 in0.0 mm 0.00 in/hr0.0 mm/hr 0.00 in0.0 mm
06:53 AM 58.0°F14.4°C 52.8°F11.6°C 83% 1.0 mph N1.6 kmh N 2.5 mph4.0 kmh 30.10 in1019.3 mb 0.00 in0.0 mm 0.00 in/hr0.0 mm/hr 0.00 in0.0 mm
06:48 AM 57.8°F14.3°C 52.7°F11.5°C 83% 1.7 mph WNW2.7 kmh WNW 3.1 mph5.0 kmh 30.10 in1019.3 mb 0.00 in0.0 mm 0.00 in/hr0.0 mm/hr 0.00 in0.0 mm
06:43 AM 57.6°F14.2°C 52.5°F11.4°C 83% 2.1 mph SSW3.4 kmh SSW 3.1 mph5.0 kmh 30.10 in1019.3 mb 0.00 in0.0 mm 0.00 in/hr0.0 mm/hr 0.00 in0.0 mm
06:38 AM 57.6°F14.2°C 52.5°F11.4°C 83% 1.0 mph W1.6 kmh W 3.4 mph5.5 kmh 30.10 in1019.3 mb 0.00 in0.0 mm 0.00 in/hr0.0 mm/hr 0.00 in0.0 mm
06:33 AM 57.2°F14.0°C 52.1°F11.2°C 83% 1.5 mph S2.4 kmh S 3.4 mph5.5 kmh 30.10 in1019.3 mb 0.00 in0.0 mm 0.00 in/hr0.0 mm/hr 0.00 in0.0 mm
06:28 AM 57.1°F13.9°C 51.9°F11.1°C 83% 1.3 mph WSW2.1 kmh WSW 3.1 mph5.0 kmh 30.11 in1019.6 mb 0.00 in0.0 mm 0.00 in/hr0.0 mm/hr 0.00 in0.0 mm
06:23 AM 56.9°F13.8°C 51.8°F11.0°C 83% 0.9 mph WSW1.4 kmh WSW 3.1 mph5.0 kmh 30.10 in1019.3 mb 0.00 in0.0 mm 0.00 in/hr0.0 mm/hr 0.00 in0.0 mm
06:18 AM 56.7°F13.7°C 51.6°F10.9°C 83% 0.8 mph WSW1.3 kmh WSW 1.6 mph2.6 kmh 30.10 in1019.3 mb 0.00 in0.0 mm 0.00 in/hr0.0 mm/hr 0.00 in0.0 mm
06:13 AM 56.5°F13.6°C 51.4°F10.8°C 83% 1.0 mph N1.6 kmh N 2.7 mph4.3 kmh 30.10 in1019.3 mb 0.00 in0.0 mm 0.00 in/hr0.0 mm/hr 0.00 in0.0 mm
06:08 AM 56.5°F13.6°C 51.0°F10.6°C 82% 0.8 mph WSW1.3 kmh WSW 2.7 mph4.3 kmh 30.10 in1019.3 mb 0.00 in0.0 mm 0.00 in/hr0.0 mm/hr 0.00 in0.0 mm
06:03 AM 56.5°F13.6°C 51.0°F10.6°C 82% 0.3 mph SSE0.5 kmh SSE 2.2 mph3.5 kmh 30.10 in1019.3 mb 0.00 in0.0 mm 0.00 in/hr0.0 mm/hr 0.00 in0.0 mm
05:58 AM 56.9°F13.8°C 51.4°F10.8°C 82% 1.1 mph SE1.8 kmh SE 1.8 mph2.9 kmh 30.11 in1019.6 mb 0.00 in0.0 mm 0.00 in/hr0.0 mm/hr 0.00 in0.0 mm
05:53 AM 57.1°F13.9°C 51.6°F10.9°C 82% 0.8 mph SE1.3 kmh SE 2.2 mph3.5 kmh 30.11 in1019.6 mb 0.00 in0.0 mm 0.00 in/hr0.0 mm/hr 0.00 in0.0 mm
05:48 AM 57.4°F14.1°C 51.7°F10.9°C 81% 1.4 mph E2.3 kmh E 4.0 mph6.4 kmh 30.11 in1019.6 mb 0.00 in0.0 mm 0.00 in/hr0.0 mm/hr 0.00 in0.0 mm
05:42 AM 57.8°F14.3°C 52.0°F11.1°C 81% 2.1 mph NW3.4 kmh NW 4.0 mph6.4 kmh 30.10 in1019.3 mb 0.00 in0.0 mm 0.00 in/hr0.0 mm/hr 0.00 in0.0 mm
05:38 AM 58.0°F14.4°C 52.2°F11.2°C 81% 1.5 mph NW2.4 kmh NW 4.3 mph6.9 kmh 30.10 in1019.3 mb 0.00 in0.0 mm 0.00 in/hr0.0 mm/hr 0.00 in0.0 mm
05:32 AM 58.0°F14.4°C 52.2°F11.2°C 81% 1.9 mph W3.1 kmh W 4.3 mph6.9 kmh 30.10 in1019.3 mb 0.00 in0.0 mm 0.00 in/hr0.0 mm/hr 0.00 in0.0 mm
05:27 AM 58.0°F14.4°C 52.2°F11.2°C 81% 1.3 mph WNW2.1 kmh WNW 4.3 mph6.9 kmh 30.10 in1019.3 mb 0.00 in0.0 mm 0.00 in/hr0.0 mm/hr 0.00 in0.0 mm
05:22 AM 58.0°F14.4°C 52.2°F11.2°C 81% 3.0 mph WSW4.8 kmh WSW 5.1 mph8.2 kmh 30.10 in1019.3 mb 0.00 in0.0 mm 0.00 in/hr0.0 mm/hr 0.00 in0.0 mm
05:17 AM 58.0°F14.4°C 51.8°F11.0°C 80% 2.2 mph WNW3.5 kmh WNW 5.1 mph8.2 kmh 30.10 in1019.3 mb 0.00 in0.0 mm 0.00 in/hr0.0 mm/hr 0.00 in0.0 mm
05:12 AM 58.0°F14.4°C 52.2°F11.2°C 81% 2.2 mph WNW3.5 kmh WNW 6.0 mph9.7 kmh 30.10 in1019.3 mb 0.00 in0.0 mm 0.00 in/hr0.0 mm/hr 0.00 in0.0 mm
05:07 AM 58.0°F14.4°C 51.8°F11.0°C 80% 2.1 mph S3.4 kmh S 6.0 mph9.7 kmh 30.09 in1019.0 mb 0.00 in0.0 mm 0.00 in/hr0.0 mm/hr 0.00 in0.0 mm
05:02 AM 58.1°F14.5°C 52.0°F11.1°C 80% 1.7 mph W2.7 kmh W 3.6 mph5.8 kmh 30.09 in1019.0 mb 0.00 in0.0 mm 0.00 in/hr0.0 mm/hr 0.00 in0.0 mm
04:57 AM 58.1°F14.5°C 52.0°F11.1°C 80% 1.3 mph W2.1 kmh W 4.5 mph7.2 kmh 30.09 in1019.0 mb 0.00 in0.0 mm 0.00 in/hr0.0 mm/hr 0.00 in0.0 mm
04:52 AM 58.3°F14.6°C 52.2°F11.2°C 80% 2.5 mph WSW4.0 kmh WSW 4.5 mph7.2 kmh 30.09 in1019.0 mb 0.00 in0.0 mm 0.00 in/hr0.0 mm/hr 0.00 in0.0 mm
04:47 AM 58.3°F14.6°C 52.2°F11.2°C 80% 1.4 mph NW2.3 kmh NW 4.0 mph6.4 kmh 30.09 in1019.0 mb 0.00 in0.0 mm 0.00 in/hr0.0 mm/hr 0.00 in0.0 mm
04:42 AM 58.3°F14.6°C 52.2°F11.2°C 80% 2.2 mph W3.5 kmh W 4.5 mph7.2 kmh 30.09 in1019.0 mb 0.00 in0.0 mm 0.00 in/hr0.0 mm/hr 0.00 in0.0 mm
04:37 AM 58.3°F14.6°C 52.2°F11.2°C 80% 2.9 mph W4.7 kmh W 4.5 mph7.2 kmh 30.09 in1019.0 mb 0.00 in0.0 mm 0.00 in/hr0.0 mm/hr 0.00 in0.0 mm
04:32 AM 58.3°F14.6°C 51.8°F11.0°C 79% 1.8 mph SSW2.9 kmh SSW 5.6 mph9.0 kmh 30.09 in1019.0 mb 0.00 in0.0 mm 0.00 in/hr0.0 mm/hr 0.00 in0.0 mm
04:27 AM 58.3°F14.6°C 51.8°F11.0°C 79% 3.5 mph WSW5.6 kmh WSW 5.6 mph9.0 kmh 30.09 in1019.0 mb 0.00 in0.0 mm 0.00 in/hr0.0 mm/hr 0.00 in0.0 mm
04:22 AM 58.3°F14.6°C 51.8°F11.0°C 79% 2.5 mph NW4.0 kmh NW 6.0 mph9.7 kmh 30.09 in1019.0 mb 0.00 in0.0 mm 0.00 in/hr0.0 mm/hr 0.00 in0.0 mm
04:17 AM 58.3°F14.6°C 51.8°F11.0°C 79% 3.1 mph WSW5.0 kmh WSW 6.0 mph9.7 kmh 30.09 in1019.0 mb 0.00 in0.0 mm 0.00 in/hr0.0 mm/hr 0.00 in0.0 mm
04:12 AM 58.5°F14.7°C 52.0°F11.1°C 79% 2.9 mph W4.7 kmh W 5.1 mph8.2 kmh 30.09 in1019.0 mb 0.00 in0.0 mm 0.00 in/hr0.0 mm/hr 0.00 in0.0 mm
04:07 AM 58.5°F14.7°C 52.0°F11.1°C 79% 3.5 mph W5.6 kmh W 5.1 mph8.2 kmh 30.09 in1019.0 mb 0.00 in0.0 mm 0.00 in/hr0.0 mm/hr 0.00 in0.0 mm
04:02 AM 58.5°F14.7°C 52.0°F11.1°C 79% 2.5 mph SSW4.0 kmh SSW 6.3 mph10.1 kmh 30.09 in1019.0 mb 0.00 in0.0 mm 0.00 in/hr0.0 mm/hr 0.00 in0.0 mm
03:57 AM 58.5°F14.7°C 52.0°F11.1°C 79% 1.2 mph NE1.9 kmh NE 6.3 mph10.1 kmh 30.09 in1019.0 mb 0.00 in0.0 mm 0.00 in/hr0.0 mm/hr 0.00 in0.0 mm
03:52 AM 58.5°F14.7°C 52.0°F11.1°C 79% 2.5 mph WSW4.0 kmh WSW 5.1 mph8.2 kmh 30.09 in1019.0 mb 0.00 in0.0 mm 0.00 in/hr0.0 mm/hr 0.00 in0.0 mm
03:47 AM 58.3°F14.6°C 51.8°F11.0°C 79% 1.8 mph NW2.9 kmh NW 4.7 mph7.6 kmh 30.09 in1019.0 mb 0.00 in0.0 mm 0.00 in/hr0.0 mm/hr 0.00 in0.0 mm
03:42 AM 58.5°F14.7°C 52.0°F11.1°C 79% 2.2 mph SW3.5 kmh SW 4.3 mph6.9 kmh 30.09 in1019.0 mb 0.00 in0.0 mm 0.00 in/hr0.0 mm/hr 0.00 in0.0 mm
03:37 AM 58.5°F14.7°C 52.0°F11.1°C 79% 1.7 mph WSW2.7 kmh WSW 6.0 mph9.7 kmh 30.09 in1019.0 mb 0.00 in0.0 mm 0.00 in/hr0.0 mm/hr 0.00 in0.0 mm
03:32 AM 58.5°F14.7°C 52.0°F11.1°C 79% 2.8 mph W4.5 kmh W 6.0 mph9.7 kmh 30.09 in1019.0 mb 0.00 in0.0 mm 0.00 in/hr0.0 mm/hr 0.00 in0.0 mm
03:27 AM 58.5°F14.7°C 52.0°F11.1°C 79% 2.0 mph NNW3.2 kmh NNW 5.8 mph9.3 kmh 30.09 in1019.0 mb 0.00 in0.0 mm 0.00 in/hr0.0 mm/hr 0.00 in0.0 mm
03:22 AM 58.7°F14.8°C 52.2°F11.2°C 79% 2.1 mph SSW3.4 kmh SSW 5.8 mph9.3 kmh 30.09 in1019.0 mb 0.00 in0.0 mm 0.00 in/hr0.0 mm/hr 0.00 in0.0 mm
03:17 AM 58.7°F14.8°C 52.2°F11.2°C 79% 2.5 mph SW4.0 kmh SW 6.5 mph10.5 kmh 30.09 in1019.0 mb 0.00 in0.0 mm 0.00 in/hr0.0 mm/hr 0.00 in0.0 mm
03:12 AM 58.7°F14.8°C 52.2°F11.2°C 79% 3.5 mph WSW5.6 kmh WSW 6.5 mph10.5 kmh 30.09 in1019.0 mb 0.00 in0.0 mm 0.00 in/hr0.0 mm/hr 0.00 in0.0 mm
03:07 AM 58.7°F14.8°C 52.2°F11.2°C 79% 2.4 mph WSW3.9 kmh WSW 3.8 mph6.1 kmh 30.10 in1019.3 mb 0.00 in0.0 mm 0.00 in/hr0.0 mm/hr 0.00 in0.0 mm
03:02 AM 58.7°F14.8°C 52.2°F11.2°C 79% 2.5 mph WSW4.0 kmh WSW 5.4 mph8.7 kmh 30.10 in1019.3 mb 0.00 in0.0 mm 0.00 in/hr0.0 mm/hr 0.00 in0.0 mm
02:57 AM 58.7°F14.8°C 52.2°F11.2°C 79% 3.0 mph SW4.8 kmh SW 5.8 mph9.3 kmh 30.09 in1019.0 mb 0.00 in0.0 mm 0.00 in/hr0.0 mm/hr 0.00 in0.0 mm
02:52 AM 58.5°F14.7°C 52.4°F11.3°C 80% 2.8 mph NW4.5 kmh NW 5.8 mph9.3 kmh 30.09 in1019.0 mb 0.00 in0.0 mm 0.00 in/hr0.0 mm/hr 0.00 in0.0 mm
02:47 AM 58.5°F14.7°C 52.4°F11.3°C 80% 2.7 mph WSW4.3 kmh WSW 5.4 mph8.7 kmh 30.09 in1019.0 mb 0.00 in0.0 mm 0.00 in/hr0.0 mm/hr 0.00 in0.0 mm
02:42 AM 58.5°F14.7°C 52.4°F11.3°C 80% 3.7 mph WSW6.0 kmh WSW 6.9 mph11.1 kmh 30.09 in1019.0 mb 0.00 in0.0 mm 0.00 in/hr0.0 mm/hr 0.00 in0.0 mm
02:37 AM 58.7°F14.8°C 52.6°F11.4°C 80% 1.5 mph W2.4 kmh W 6.9 mph11.1 kmh 30.09 in1019.0 mb 0.00 in0.0 mm 0.00 in/hr0.0 mm/hr 0.00 in0.0 mm
02:32 AM 58.7°F14.8°C 52.6°F11.4°C 80% 3.0 mph WSW4.8 kmh WSW 5.8 mph9.3 kmh 30.09 in1019.0 mb 0.00 in0.0 mm 0.00 in/hr0.0 mm/hr 0.00 in0.0 mm
02:27 AM 58.7°F14.8°C 52.6°F11.4°C 80% 2.2 mph W3.5 kmh W 5.8 mph9.3 kmh 30.09 in1019.0 mb 0.00 in0.0 mm 0.00 in/hr0.0 mm/hr 0.00 in0.0 mm
02:22 AM 58.7°F14.8°C 52.6°F11.4°C 80% 2.0 mph SW3.2 kmh SW 5.4 mph8.7 kmh 30.09 in1019.0 mb 0.00 in0.0 mm 0.00 in/hr0.0 mm/hr 0.00 in0.0 mm
02:17 AM 58.7°F14.8°C 52.6°F11.4°C 80% 3.3 mph SW5.3 kmh SW 6.3 mph10.1 kmh 30.09 in1019.0 mb 0.00 in0.0 mm 0.00 in/hr0.0 mm/hr 0.00 in0.0 mm
02:12 AM 58.7°F14.8°C 52.6°F11.4°C 80% 2.1 mph WNW3.4 kmh WNW 6.3 mph10.1 kmh 30.09 in1019.0 mb 0.00 in0.0 mm 0.00 in/hr0.0 mm/hr 0.00 in0.0 mm
02:07 AM 58.7°F14.8°C 52.6°F11.4°C 80% 2.5 mph NW4.0 kmh NW 4.5 mph7.2 kmh 30.10 in1019.3 mb 0.00 in0.0 mm 0.00 in/hr0.0 mm/hr 0.00 in0.0 mm
02:02 AM 58.7°F14.8°C 52.6°F11.4°C 80% 2.8 mph WSW4.5 kmh WSW 5.8 mph9.3 kmh 30.09 in1019.0 mb 0.00 in0.0 mm 0.00 in/hr0.0 mm/hr 0.00 in0.0 mm
01:57 AM 58.7°F14.8°C 52.6°F11.4°C 80% 2.9 mph WSW4.7 kmh WSW 5.8 mph9.3 kmh 30.10 in1019.3 mb 0.00 in0.0 mm 0.00 in/hr0.0 mm/hr 0.00 in0.0 mm
01:52 AM 58.7°F14.8°C 52.6°F11.4°C 80% 3.1 mph W5.0 kmh W 5.1 mph8.2 kmh 30.10 in1019.3 mb 0.00 in0.0 mm 0.00 in/hr0.0 mm/hr 0.00 in0.0 mm
01:47 AM 58.7°F14.8°C 52.6°F11.4°C 80% 1.9 mph WNW3.1 kmh WNW 5.6 mph9.0 kmh 30.10 in1019.3 mb 0.00 in0.0 mm 0.00 in/hr0.0 mm/hr 0.00 in0.0 mm
01:42 AM 58.9°F14.9°C 53.1°F11.7°C 81% 1.2 mph W1.9 kmh W 5.6 mph9.0 kmh 30.10 in1019.3 mb 0.00 in0.0 mm 0.00 in/hr0.0 mm/hr 0.00 in0.0 mm
01:37 AM 58.7°F14.8°C 52.9°F11.6°C 81% 3.3 mph E5.3 kmh E 5.6 mph9.0 kmh 30.10 in1019.3 mb 0.00 in0.0 mm 0.00 in/hr0.0 mm/hr 0.00 in0.0 mm
01:32 AM 58.7°F14.8°C 52.9°F11.6°C 81% 1.4 mph WNW2.3 kmh WNW 4.3 mph6.9 kmh 30.10 in1019.3 mb 0.00 in0.0 mm 0.00 in/hr0.0 mm/hr 0.00 in0.0 mm
01:27 AM 58.7°F14.8°C 52.9°F11.6°C 81% 1.9 mph NW3.1 kmh NW 4.5 mph7.2 kmh 30.10 in1019.3 mb 0.00 in0.0 mm 0.00 in/hr0.0 mm/hr 0.00 in0.0 mm
01:22 AM 58.7°F14.8°C 52.9°F11.6°C 81% 2.9 mph SW4.7 kmh SW 4.5 mph7.2 kmh 30.11 in1019.6 mb 0.00 in0.0 mm 0.00 in/hr0.0 mm/hr 0.00 in0.0 mm
01:17 AM 58.7°F14.8°C 52.9°F11.6°C 81% 2.3 mph WNW3.7 kmh WNW 4.3 mph6.9 kmh 30.11 in1019.6 mb 0.00 in0.0 mm 0.00 in/hr0.0 mm/hr 0.00 in0.0 mm
01:12 AM 58.7°F14.8°C 52.9°F11.6°C 81% 1.4 mph W2.3 kmh W 4.7 mph7.6 kmh 30.11 in1019.6 mb 0.00 in0.0 mm 0.00 in/hr0.0 mm/hr 0.00 in0.0 mm
01:07 AM 58.7°F14.8°C 52.9°F11.6°C 81% 2.5 mph WSW4.0 kmh WSW 4.7 mph7.6 kmh 30.11 in1019.6 mb 0.00 in0.0 mm 0.00 in/hr0.0 mm/hr 0.00 in0.0 mm
01:02 AM 58.7°F14.8°C 52.9°F11.6°C 81% 2.2 mph NW3.5 kmh NW 4.7 mph7.6 kmh 30.11 in1019.6 mb 0.00 in0.0 mm 0.00 in/hr0.0 mm/hr 0.00 in0.0 mm
12:57 AM 58.7°F14.8°C 52.9°F11.6°C 81% 2.4 mph ENE3.9 kmh ENE 5.1 mph8.2 kmh 30.11 in1019.6 mb 0.00 in0.0 mm 0.00 in/hr0.0 mm/hr 0.00 in0.0 mm
12:52 AM 58.7°F14.8°C 52.9°F11.6°C 81% 3.3 mph WSW5.3 kmh WSW 6.7 mph10.8 kmh 30.11 in1019.6 mb 0.00 in0.0 mm 0.00 in/hr0.0 mm/hr 0.00 in0.0 mm
12:47 AM 58.7°F14.8°C 52.9°F11.6°C 81% 4.3 mph E6.9 kmh E 6.7 mph10.8 kmh 30.11 in1019.6 mb 0.00 in0.0 mm 0.00 in/hr0.0 mm/hr 0.00 in0.0 mm
12:42 AM 58.7°F14.8°C 52.9°F11.6°C 81% 1.9 mph W3.1 kmh W 6.5 mph10.5 kmh 30.11 in1019.6 mb 0.00 in0.0 mm 0.00 in/hr0.0 mm/hr 0.00 in0.0 mm
12:37 AM 58.7°F14.8°C 52.9°F11.6°C 81% 2.1 mph W3.4 kmh W 6.9 mph11.1 kmh 30.11 in1019.6 mb 0.00 in0.0 mm 0.00 in/hr0.0 mm/hr 0.00 in0.0 mm
12:32 AM 58.7°F14.8°C 52.9°F11.6°C 81% 4.0 mph N6.4 kmh N 6.9 mph11.1 kmh 30.11 in1019.6 mb 0.00 in0.0 mm 0.00 in/hr0.0 mm/hr 0.00 in0.0 mm
12:27 AM 58.7°F14.8°C 52.9°F11.6°C 81% 3.4 mph SE5.5 kmh SE 6.7 mph10.8 kmh 30.11 in1019.6 mb 0.00 in0.0 mm 0.00 in/hr0.0 mm/hr 0.00 in0.0 mm
12:22 AM 58.7°F14.8°C 52.6°F11.4°C 80% 1.4 mph W2.3 kmh W 4.7 mph7.6 kmh 30.12 in1020.0 mb 0.00 in0.0 mm 0.00 in/hr0.0 mm/hr 0.00 in0.0 mm
12:17 AM 58.7°F14.8°C 52.6°F11.4°C 80% 2.3 mph WSW3.7 kmh WSW 5.1 mph8.2 kmh 30.12 in1020.0 mb 0.00 in0.0 mm 0.00 in/hr0.0 mm/hr 0.00 in0.0 mm
12:12 AM 58.7°F14.8°C 52.6°F11.4°C 80% 3.0 mph NW4.8 kmh NW 5.4 mph8.7 kmh 30.11 in1019.6 mb 0.00 in0.0 mm 0.00 in/hr0.0 mm/hr 0.00 in0.0 mm
12:07 AM 58.7°F14.8°C 52.6°F11.4°C 80% 3.2 mph NW5.1 kmh NW 5.8 mph9.3 kmh 30.11 in1019.6 mb 0.00 in0.0 mm 0.00 in/hr0.0 mm/hr 0.00 in0.0 mm
12:02 AM 58.5°F14.7°C 52.0°F11.1°C 79% 4.4 mph W7.1 kmh W 5.8 mph9.3 kmh 30.11 in1019.6 mb 0.00 in0.0 mm 0.00 in/hr0.0 mm/hr 0.00 in0.0 mm